KFAT/FAT METAR and TAF weather

Enter ICAO airport designator
Station Type Date Time Source
KFAT METAR 2024/06/14 02:53 UTC NOAA

KFAT 140253Z 32009KT 10SM FEW080 FEW120 FEW200 32/10 A2987 RMK AO2 SLP110 TCU DSNT NE T03170100 53009


Station Type Date Time Source
KFAT Decoded METAR 2024/06/14 02:53 UTC NOAA

FRESNO AIR TERMINAL, CA, United States (KFAT) 36-47N 119-43W 104M
Jun 13, 2024 - 10:53 PM EDT / 2024.06.14 0253 UTC
Wind: from the NW (320 degrees) at 10 MPH (9 KT):0
Visibility: 10 mile(s):0
Sky conditions: mostly clear
Weather: Towering cumulus clouds observed
Temperature: 89.1 F (31.7 C)
Dew Point: 50.0 F (10.0 C)
Relative Humidity: 26%
Pressure (altimeter): 29.87 in. Hg (1011 hPa)
Pressure tendency: 0.03 inches (0.9 hPa) higher than three hours ago
ob: KFAT 140253Z 32009KT 10SM FEW080 FEW120 FEW200 32/10 A2987 RMK AO2 SLP110 TCU DSNT NE T03170100 53009
cycle: 3

Station Type Date Time Source
KFAT TAF 2024/06/13 18:22 UTC NOAA